sensor_id;sensor_type;location;lat;lon;timestamp;P1;durP1;ratioP1;P2;durP2;ratioP2
45620;SDS011;31345;51.522;10.702;2023-10-13T00:02:00;18.50;;;12.82;;
45620;SDS011;31345;51.522;10.702;2023-10-13T00:04:34;13.18;;;10.18;;
45620;SDS011;31345;51.522;10.702;2023-10-13T00:07:07;15.05;;;10.60;;
45620;SDS011;31345;51.522;10.702;2023-10-13T00:09:40;17.25;;;10.85;;
45620;SDS011;31345;51.522;10.702;2023-10-13T00:12:13;12.93;;;10.00;;
45620;SDS011;31345;51.522;10.702;2023-10-13T00:14:52;17.40;;;10.88;;
45620;SDS011;31345;51.522;10.702;2023-10-13T00:17:25;16.25;;;10.88;;
45620;SDS011;31345;51.522;10.702;2023-10-13T00:19:58;12.82;;;10.57;;
45620;SDS011;31345;51.522;10.702;2023-10-13T00:22:31;18.58;;;11.07;;
45620;SDS011;31345;51.522;10.702;2023-10-13T00:25:00;14.70;;;10.70;;
45620;SDS011;31345;51.522;10.702;2023-10-13T00:27:34;12.95;;;10.10;;
45620;SDS011;31345;51.522;10.702;2023-10-13T00:30:13;13.80;;;9.80;;
45620;SDS011;31345;51.522;10.702;2023-10-13T00:32:53;14.38;;;10.55;;
45620;SDS011;31345;51.522;10.702;2023-10-13T00:35:21;13.18;;;9.85;;
45620;SDS011;31345;51.522;10.702;2023-10-13T00:37:59;13.00;;;10.13;;
45620;SDS011;31345;51.522;10.702;2023-10-13T00:40:30;17.17;;;9.07;;
45620;SDS011;31345;51.522;10.702;2023-10-13T00:43:14;14.40;;;9.90;;
45620;SDS011;31345;51.522;10.702;2023-10-13T00:48:40;14.65;;;10.75;;
45620;SDS011;31345;51.522;10.702;2023-10-13T00:51:12;15.45;;;11.00;;
45620;SDS011;31345;51.522;10.702;2023-10-13T00:54:03;13.00;;;10.07;;
45620;SDS011;31345;51.522;10.702;2023-10-13T00:56:37;13.20;;;9.70;;
45620;SDS011;31345;51.522;10.702;2023-10-13T01:01:55;14.50;;;8.57;;
45620;SDS011;31345;51.522;10.702;2023-10-13T01:04:23;12.05;;;9.23;;
45620;SDS011;31345;51.522;10.702;2023-10-13T01:06:59;14.10;;;8.70;;
45620;SDS011;31345;51.522;10.702;2023-10-13T01:09:39;15.43;;;9.07;;
45620;SDS011;31345;51.522;10.702;2023-10-13T01:15:23;13.93;;;8.18;;
45620;SDS011;31345;51.522;10.702;2023-10-13T01:18:06;11.55;;;8.35;;
45620;SDS011;31345;51.522;10.702;2023-10-13T01:20:43;13.70;;;8.40;;
45620;SDS011;31345;51.522;10.702;2023-10-13T01:23:13;13.38;;;7.72;;
45620;SDS011;31345;51.522;10.702;2023-10-13T01:25:44;13.05;;;7.88;;
45620;SDS011;31345;51.522;10.702;2023-10-13T01:28:11;12.95;;;7.80;;
45620;SDS011;31345;51.522;10.702;2023-10-13T01:30:42;9.15;;;7.05;;
45620;SDS011;31345;51.522;10.702;2023-10-13T01:33:13;11.55;;;7.90;;
45620;SDS011;31345;51.522;10.702;2023-10-13T01:35:41;10.55;;;7.70;;
45620;SDS011;31345;51.522;10.702;2023-10-13T01:38:19;10.90;;;7.50;;
45620;SDS011;31345;51.522;10.702;2023-10-13T01:40:52;12.40;;;7.38;;
45620;SDS011;31345;51.522;10.702;2023-10-13T01:43:24;10.20;;;7.60;;
45620;SDS011;31345;51.522;10.702;2023-10-13T01:45:56;10.68;;;7.63;;
45620;SDS011;31345;51.522;10.702;2023-10-13T01:48:28;11.07;;;7.60;;
45620;SDS011;31345;51.522;10.702;2023-10-13T01:51:03;10.38;;;7.28;;
45620;SDS011;31345;51.522;10.702;2023-10-13T01:53:36;12.73;;;7.22;;
45620;SDS011;31345;51.522;10.702;2023-10-13T01:56:04;10.95;;;7.45;;
45620;SDS011;31345;51.522;10.702;2023-10-13T01:58:41;13.10;;;8.50;;
45620;SDS011;31345;51.522;10.702;2023-10-13T02:01:09;11.52;;;7.43;;
45620;SDS011;31345;51.522;10.702;2023-10-13T02:03:41;9.93;;;7.30;;
45620;SDS011;31345;51.522;10.702;2023-10-13T02:06:13;13.48;;;7.78;;
45620;SDS011;31345;51.522;10.702;2023-10-13T02:08:50;13.45;;;8.00;;
45620;SDS011;31345;51.522;10.702;2023-10-13T02:11:28;11.98;;;7.18;;
45620;SDS011;31345;51.522;10.702;2023-10-13T02:14:00;11.15;;;7.72;;
45620;SDS011;31345;51.522;10.702;2023-10-13T02:16:33;14.45;;;7.53;;
45620;SDS011;31345;51.522;10.702;2023-10-13T02:19:04;10.07;;;7.60;;
45620;SDS011;31345;51.522;10.702;2023-10-13T02:21:34;12.07;;;6.70;;
45620;SDS011;31345;51.522;10.702;2023-10-13T02:24:07;9.57;;;6.18;;
45620;SDS011;31345;51.522;10.702;2023-10-13T02:26:44;9.68;;;6.03;;
45620;SDS011;31345;51.522;10.702;2023-10-13T02:29:16;8.55;;;6.75;;
45620;SDS011;31345;51.522;10.702;2023-10-13T02:31:49;13.05;;;6.40;;
45620;SDS011;31345;51.522;10.702;2023-10-13T02:34:25;11.25;;;6.63;;
45620;SDS011;31345;51.522;10.702;2023-10-13T02:36:58;7.60;;;5.97;;
45620;SDS011;31345;51.522;10.702;2023-10-13T02:39:31;8.75;;;6.78;;
45620;SDS011;31345;51.522;10.702;2023-10-13T02:42:02;9.00;;;6.10;;
45620;SDS011;31345;51.522;10.702;2023-10-13T02:44:38;7.70;;;5.95;;
45620;SDS011;31345;51.522;10.702;2023-10-13T02:47:10;9.18;;;6.53;;
45620;SDS011;31345;51.522;10.702;2023-10-13T02:49:45;9.65;;;6.50;;
45620;SDS011;31345;51.522;10.702;2023-10-13T02:52:17;7.20;;;6.07;;
45620;SDS011;31345;51.522;10.702;2023-10-13T02:54:47;11.82;;;7.65;;
45620;SDS011;31345;51.522;10.702;2023-10-13T02:57:21;11.80;;;7.30;;
45620;SDS011;31345;51.522;10.702;2023-10-13T02:59:55;11.65;;;6.47;;
45620;SDS011;31345;51.522;10.702;2023-10-13T03:02:43;13.65;;;7.35;;
45620;SDS011;31345;51.522;10.702;2023-10-13T03:05:11;14.35;;;7.38;;
45620;SDS011;31345;51.522;10.702;2023-10-13T03:07:47;10.40;;;7.10;;
45620;SDS011;31345;51.522;10.702;2023-10-13T03:10:18;13.95;;;7.20;;
45620;SDS011;31345;51.522;10.702;2023-10-13T03:12:52;10.27;;;7.35;;
45620;SDS011;31345;51.522;10.702;2023-10-13T03:15:24;11.07;;;7.70;;
45620;SDS011;31345;51.522;10.702;2023-10-13T03:18:02;12.23;;;7.22;;
45620;SDS011;31345;51.522;10.702;2023-10-13T03:20:37;13.63;;;6.85;;
45620;SDS011;31345;51.522;10.702;2023-10-13T03:23:13;8.93;;;7.03;;
45620;SDS011;31345;51.522;10.702;2023-10-13T03:25:47;11.15;;;6.50;;
45620;SDS011;31345;51.522;10.702;2023-10-13T03:28:16;11.13;;;6.25;;
45620;SDS011;31345;51.522;10.702;2023-10-13T03:30:54;10.55;;;6.60;;
45620;SDS011;31345;51.522;10.702;2023-10-13T03:33:32;12.55;;;6.72;;
45620;SDS011;31345;51.522;10.702;2023-10-13T03:36:00;9.25;;;7.47;;
45620;SDS011;31345;51.522;10.702;2023-10-13T03:38:37;10.30;;;6.47;;
45620;SDS011;31345;51.522;10.702;2023-10-13T03:41:12;11.00;;;6.45;;
45620;SDS011;31345;51.522;10.702;2023-10-13T03:43:46;12.43;;;8.30;;
45620;SDS011;31345;51.522;10.702;2023-10-13T03:46:23;9.93;;;7.50;;
45620;SDS011;31345;51.522;10.702;2023-10-13T03:48:57;12.45;;;7.75;;
45620;SDS011;31345;51.522;10.702;2023-10-13T03:51:32;13.25;;;7.63;;
45620;SDS011;31345;51.522;10.702;2023-10-13T03:54:00;12.75;;;7.07;;
45620;SDS011;31345;51.522;10.702;2023-10-13T03:56:39;10.02;;;7.15;;
45620;SDS011;31345;51.522;10.702;2023-10-13T03:59:12;11.65;;;8.13;;
45620;SDS011;31345;51.522;10.702;2023-10-13T04:01:51;10.32;;;7.88;;
45620;SDS011;31345;51.522;10.702;2023-10-13T04:04:30;11.68;;;7.80;;
45620;SDS011;31345;51.522;10.702;2023-10-13T04:07:13;13.57;;;8.32;;
45620;SDS011;31345;51.522;10.702;2023-10-13T04:10:08;14.10;;;8.40;;
45620;SDS011;31345;51.522;10.702;2023-10-13T04:13:06;11.02;;;7.57;;
45620;SDS011;31345;51.522;10.702;2023-10-13T04:15:57;14.35;;;7.60;;
45620;SDS011;31345;51.522;10.702;2023-10-13T04:19:05;12.80;;;7.47;;
45620;SDS011;31345;51.522;10.702;2023-10-13T04:21:42;11.77;;;7.75;;
45620;SDS011;31345;51.522;10.702;2023-10-13T04:24:28;10.68;;;7.35;;
45620;SDS011;31345;51.522;10.702;2023-10-13T04:27:30;10.70;;;8.23;;
45620;SDS011;31345;51.522;10.702;2023-10-13T04:30:20;11.45;;;7.57;;
45620;SDS011;31345;51.522;10.702;2023-10-13T04:32:58;13.60;;;7.82;;
45620;SDS011;31345;51.522;10.702;2023-10-13T04:36:07;11.93;;;7.28;;
45620;SDS011;31345;51.522;10.702;2023-10-13T04:38:40;11.48;;;7.10;;
45620;SDS011;31345;51.522;10.702;2023-10-13T04:41:27;11.85;;;7.25;;
45620;SDS011;31345;51.522;10.702;2023-10-13T04:44:03;15.25;;;9.43;;
45620;SDS011;31345;51.522;10.702;2023-10-13T04:46:57;15.15;;;8.70;;
45620;SDS011;31345;51.522;10.702;2023-10-13T04:49:44;13.88;;;5.95;;
45620;SDS011;31345;51.522;10.702;2023-10-13T04:52:24;12.35;;;8.15;;
45620;SDS011;31345;51.522;10.702;2023-10-13T04:55:11;11.38;;;7.15;;
45620;SDS011;31345;51.522;10.702;2023-10-13T04:58:08;11.80;;;7.55;;
45620;SDS011;31345;51.522;10.702;2023-10-13T05:00:41;12.20;;;7.13;;
45620;SDS011;31345;51.522;10.702;2023-10-13T05:03:50;12.70;;;7.53;;
45620;SDS011;31345;51.522;10.702;2023-10-13T05:06:34;13.27;;;7.63;;
45620;SDS011;31345;51.522;10.702;2023-10-13T05:09:24;13.77;;;7.70;;
45620;SDS011;31345;51.522;10.702;2023-10-13T05:12:14;11.68;;;7.07;;
45620;SDS011;31345;51.522;10.702;2023-10-13T05:15:05;11.50;;;7.20;;
45620;SDS011;31345;51.522;10.702;2023-10-13T05:17:50;11.07;;;7.60;;
45620;SDS011;31345;51.522;10.702;2023-10-13T05:20:41;14.88;;;8.43;;
45620;SDS011;31345;51.522;10.702;2023-10-13T05:23:26;11.13;;;8.38;;
45620;SDS011;31345;51.522;10.702;2023-10-13T05:26:16;12.55;;;7.95;;
45620;SDS011;31345;51.522;10.702;2023-10-13T05:29:06;15.85;;;7.57;;
45620;SDS011;31345;51.522;10.702;2023-10-13T05:31:50;12.55;;;8.40;;
45620;SDS011;31345;51.522;10.702;2023-10-13T05:34:44;15.45;;;7.57;;
45620;SDS011;31345;51.522;10.702;2023-10-13T05:37:30;12.23;;;8.82;;
45620;SDS011;31345;51.522;10.702;2023-10-13T05:40:24;12.27;;;7.90;;
45620;SDS011;31345;51.522;10.702;2023-10-13T05:43:14;12.82;;;7.63;;
45620;SDS011;31345;51.522;10.702;2023-10-13T05:46:00;11.68;;;8.57;;
45620;SDS011;31345;51.522;10.702;2023-10-13T05:48:48;11.55;;;8.02;;
45620;SDS011;31345;51.522;10.702;2023-10-13T05:51:38;15.52;;;9.32;;
45620;SDS011;31345;51.522;10.702;2023-10-13T05:54:20;10.38;;;8.13;;
45620;SDS011;31345;51.522;10.702;2023-10-13T05:57:09;11.27;;;7.63;;
45620;SDS011;31345;51.522;10.702;2023-10-13T05:59:54;11.35;;;7.93;;
45620;SDS011;31345;51.522;10.702;2023-10-13T06:02:40;13.82;;;9.32;;
45620;SDS011;31345;51.522;10.702;2023-10-13T06:05:21;14.43;;;10.77;;
45620;SDS011;31345;51.522;10.702;2023-10-13T06:08:12;14.48;;;9.57;;
45620;SDS011;31345;51.522;10.702;2023-10-13T06:11:03;12.20;;;9.20;;
45620;SDS011;31345;51.522;10.702;2023-10-13T06:13:53;12.85;;;9.10;;
45620;SDS011;31345;51.522;10.702;2023-10-13T06:16:38;13.68;;;8.85;;
45620;SDS011;31345;51.522;10.702;2023-10-13T06:19:29;16.50;;;9.82;;
45620;SDS011;31345;51.522;10.702;2023-10-13T06:22:14;13.45;;;9.57;;
45620;SDS011;31345;51.522;10.702;2023-10-13T06:25:04;18.25;;;10.32;;
45620;SDS011;31345;51.522;10.702;2023-10-13T06:27:56;18.88;;;10.65;;
45620;SDS011;31345;51.522;10.702;2023-10-13T06:30:41;17.75;;;9.95;;
45620;SDS011;31345;51.522;10.702;2023-10-13T06:33:18;14.02;;;10.50;;
45620;SDS011;31345;51.522;10.702;2023-10-13T06:35:49;14.38;;;11.15;;
45620;SDS011;31345;51.522;10.702;2023-10-13T06:38:22;19.85;;;11.65;;
45620;SDS011;31345;51.522;10.702;2023-10-13T06:40:55;20.15;;;12.55;;
45620;SDS011;31345;51.522;10.702;2023-10-13T06:43:24;18.23;;;11.20;;
45620;SDS011;31345;51.522;10.702;2023-10-13T06:45:59;19.80;;;11.10;;
45620;SDS011;31345;51.522;10.702;2023-10-13T06:48:33;17.02;;;11.05;;
45620;SDS011;31345;51.522;10.702;2023-10-13T06:51:06;18.90;;;11.18;;
45620;SDS011;31345;51.522;10.702;2023-10-13T06:53:48;17.20;;;10.75;;
45620;SDS011;31345;51.522;10.702;2023-10-13T06:56:22;19.73;;;10.95;;
45620;SDS011;31345;51.522;10.702;2023-10-13T06:59:00;15.68;;;10.73;;
45620;SDS011;31345;51.522;10.702;2023-10-13T07:01:35;15.93;;;10.63;;
45620;SDS011;31345;51.522;10.702;2023-10-13T07:04:11;17.60;;;11.70;;
45620;SDS011;31345;51.522;10.702;2023-10-13T07:06:47;19.52;;;12.23;;
45620;SDS011;31345;51.522;10.702;2023-10-13T07:09:20;22.23;;;11.55;;
45620;SDS011;31345;51.522;10.702;2023-10-13T07:12:11;15.03;;;11.07;;
45620;SDS011;31345;51.522;10.702;2023-10-13T07:14:50;20.55;;;11.25;;
45620;SDS011;31345;51.522;10.702;2023-10-13T07:17:31;14.27;;;10.25;;
45620;SDS011;31345;51.522;10.702;2023-10-13T07:20:10;15.73;;;10.50;;
45620;SDS011;31345;51.522;10.702;2023-10-13T07:22:54;16.80;;;11.13;;
45620;SDS011;31345;51.522;10.702;2023-10-13T07:25:29;15.23;;;9.57;;
45620;SDS011;31345;51.522;10.702;2023-10-13T07:28:04;16.60;;;11.40;;
45620;SDS011;31345;51.522;10.702;2023-10-13T07:30:40;19.75;;;12.23;;
45620;SDS011;31345;51.522;10.702;2023-10-13T07:33:20;18.30;;;10.63;;
45620;SDS011;31345;51.522;10.702;2023-10-13T07:35:59;17.38;;;10.93;;
45620;SDS011;31345;51.522;10.702;2023-10-13T07:38:30;19.02;;;10.32;;
45620;SDS011;31345;51.522;10.702;2023-10-13T07:41:04;18.90;;;11.38;;
45620;SDS011;31345;51.522;10.702;2023-10-13T07:43:39;19.50;;;12.05;;
45620;SDS011;31345;51.522;10.702;2023-10-13T07:46:13;18.42;;;11.90;;
45620;SDS011;31345;51.522;10.702;2023-10-13T07:48:46;16.60;;;10.95;;
45620;SDS011;31345;51.522;10.702;2023-10-13T07:51:23;16.67;;;10.38;;
45620;SDS011;31345;51.522;10.702;2023-10-13T07:53:58;16.45;;;11.02;;
45620;SDS011;31345;51.522;10.702;2023-10-13T07:56:38;17.30;;;10.30;;
45620;SDS011;31345;51.522;10.702;2023-10-13T07:59:06;17.60;;;10.98;;
45620;SDS011;31345;51.522;10.702;2023-10-13T08:01:41;17.88;;;10.57;;
45620;SDS011;31345;51.522;10.702;2023-10-13T08:04:09;14.82;;;10.90;;
45620;SDS011;31345;51.522;10.702;2023-10-13T08:06:37;15.77;;;10.73;;
45620;SDS011;31345;51.522;10.702;2023-10-13T08:09:11;15.68;;;10.52;;
45620;SDS011;31345;51.522;10.702;2023-10-13T08:11:53;15.73;;;9.63;;
45620;SDS011;31345;51.522;10.702;2023-10-13T08:14:26;16.85;;;10.80;;
45620;SDS011;31345;51.522;10.702;2023-10-13T08:16:56;17.63;;;10.38;;
45620;SDS011;31345;51.522;10.702;2023-10-13T08:19:31;17.95;;;9.90;;
45620;SDS011;31345;51.522;10.702;2023-10-13T08:22:11;13.25;;;9.57;;
45620;SDS011;31345;51.522;10.702;2023-10-13T08:24:56;15.13;;;9.23;;
45620;SDS011;31345;51.522;10.702;2023-10-13T08:27:41;17.33;;;8.85;;
45620;SDS011;31345;51.522;10.702;2023-10-13T08:30:21;14.77;;;9.43;;
45620;SDS011;31345;51.522;10.702;2023-10-13T08:32:56;12.98;;;8.57;;
45620;SDS011;31345;51.522;10.702;2023-10-13T08:35:29;16.27;;;9.02;;
45620;SDS011;31345;51.522;10.702;2023-10-13T08:38:04;16.30;;;9.00;;
45620;SDS011;31345;51.522;10.702;2023-10-13T08:40:46;12.48;;;8.38;;
45620;SDS011;31345;51.522;10.702;2023-10-13T08:43:32;12.38;;;7.90;;
45620;SDS011;31345;51.522;10.702;2023-10-13T08:46:14;10.73;;;7.88;;
45620;SDS011;31345;51.522;10.702;2023-10-13T08:49:03;11.25;;;8.07;;
45620;SDS011;31345;51.522;10.702;2023-10-13T08:51:48;16.75;;;8.98;;
45620;SDS011;31345;51.522;10.702;2023-10-13T08:54:36;11.02;;;8.15;;
45620;SDS011;31345;51.522;10.702;2023-10-13T08:57:12;15.35;;;9.32;;
45620;SDS011;31345;51.522;10.702;2023-10-13T08:59:59;17.65;;;9.45;;
45620;SDS011;31345;51.522;10.702;2023-10-13T09:02:41;15.82;;;8.73;;
45620;SDS011;31345;51.522;10.702;2023-10-13T09:05:37;10.18;;;7.93;;
45620;SDS011;31345;51.522;10.702;2023-10-13T09:08:24;17.70;;;8.95;;
45620;SDS011;31345;51.522;10.702;2023-10-13T09:11:05;14.27;;;8.25;;
45620;SDS011;31345;51.522;10.702;2023-10-13T09:13:43;13.15;;;8.93;;
45620;SDS011;31345;51.522;10.702;2023-10-13T09:16:15;13.98;;;8.25;;
45620;SDS011;31345;51.522;10.702;2023-10-13T09:18:48;14.55;;;7.78;;
45620;SDS011;31345;51.522;10.702;2023-10-13T09:21:24;15.23;;;8.18;;
45620;SDS011;31345;51.522;10.702;2023-10-13T09:24:14;14.18;;;7.75;;
45620;SDS011;31345;51.522;10.702;2023-10-13T09:27:03;12.52;;;6.65;;
45620;SDS011;31345;51.522;10.702;2023-10-13T09:29:36;12.95;;;7.50;;
45620;SDS011;31345;51.522;10.702;2023-10-13T09:32:09;11.80;;;7.50;;
45620;SDS011;31345;51.522;10.702;2023-10-13T09:34:43;10.63;;;7.18;;
45620;SDS011;31345;51.522;10.702;2023-10-13T09:37:17;14.00;;;7.57;;
45620;SDS011;31345;51.522;10.702;2023-10-13T09:39:52;17.67;;;7.55;;
45620;SDS011;31345;51.522;10.702;2023-10-13T09:42:23;20.63;;;8.10;;
45620;SDS011;31345;51.522;10.702;2023-10-13T09:44:57;14.63;;;7.57;;
45620;SDS011;31345;51.522;10.702;2023-10-13T09:47:35;14.40;;;7.07;;
45620;SDS011;31345;51.522;10.702;2023-10-13T09:50:08;10.77;;;6.90;;
45620;SDS011;31345;51.522;10.702;2023-10-13T09:52:56;11.52;;;6.95;;
45620;SDS011;31345;51.522;10.702;2023-10-13T09:55:30;13.48;;;7.00;;
45620;SDS011;31345;51.522;10.702;2023-10-13T09:58:06;12.85;;;7.25;;
45620;SDS011;31345;51.522;10.702;2023-10-13T10:00:45;17.20;;;7.28;;
45620;SDS011;31345;51.522;10.702;2023-10-13T10:03:27;15.57;;;7.25;;
45620;SDS011;31345;51.522;10.702;2023-10-13T10:06:05;13.52;;;7.70;;
45620;SDS011;31345;51.522;10.702;2023-10-13T10:08:39;13.10;;;6.93;;
45620;SDS011;31345;51.522;10.702;2023-10-13T10:14:42;12.98;;;6.30;;
45620;SDS011;31345;51.522;10.702;2023-10-13T10:17:28;15.02;;;7.78;;
45620;SDS011;31345;51.522;10.702;2023-10-13T10:20:04;13.70;;;6.07;;
45620;SDS011;31345;51.522;10.702;2023-10-13T10:22:55;15.80;;;6.65;;
45620;SDS011;31345;51.522;10.702;2023-10-13T10:25:32;11.90;;;6.10;;
45620;SDS011;31345;51.522;10.702;2023-10-13T10:28:07;15.55;;;7.07;;
45620;SDS011;31345;51.522;10.702;2023-10-13T10:30:36;15.75;;;6.88;;
45620;SDS011;31345;51.522;10.702;2023-10-13T10:33:10;21.10;;;7.90;;
45620;SDS011;31345;51.522;10.702;2023-10-13T10:35:45;17.27;;;7.38;;
45620;SDS011;31345;51.522;10.702;2023-10-13T10:38:18;14.35;;;6.50;;
45620;SDS011;31345;51.522;10.702;2023-10-13T10:41:05;11.30;;;6.70;;
45620;SDS011;31345;51.522;10.702;2023-10-13T10:43:38;14.05;;;6.47;;
45620;SDS011;31345;51.522;10.702;2023-10-13T10:46:15;14.25;;;5.88;;
45620;SDS011;31345;51.522;10.702;2023-10-13T10:48:49;16.13;;;6.60;;
45620;SDS011;31345;51.522;10.702;2023-10-13T10:51:27;16.52;;;7.07;;
45620;SDS011;31345;51.522;10.702;2023-10-13T10:54:03;12.73;;;6.60;;
45620;SDS011;31345;51.522;10.702;2023-10-13T10:56:45;20.83;;;7.43;;
45620;SDS011;31345;51.522;10.702;2023-10-13T10:59:23;16.88;;;6.45;;
45620;SDS011;31345;51.522;10.702;2023-10-13T11:02:00;18.25;;;6.65;;
45620;SDS011;31345;51.522;10.702;2023-10-13T11:04:32;13.90;;;6.47;;
45620;SDS011;31345;51.522;10.702;2023-10-13T11:07:06;13.75;;;6.88;;
45620;SDS011;31345;51.522;10.702;2023-10-13T11:09:39;16.73;;;6.28;;
45620;SDS011;31345;51.522;10.702;2023-10-13T11:12:19;14.45;;;6.03;;
45620;SDS011;31345;51.522;10.702;2023-10-13T11:15:00;15.82;;;6.13;;
45620;SDS011;31345;51.522;10.702;2023-10-13T11:17:36;11.13;;;5.68;;
45620;SDS011;31345;51.522;10.702;2023-10-13T11:20:16;12.50;;;6.63;;
45620;SDS011;31345;51.522;10.702;2023-10-13T11:22:57;17.77;;;6.43;;
45620;SDS011;31345;51.522;10.702;2023-10-13T11:25:31;12.50;;;5.90;;
45620;SDS011;31345;51.522;10.702;2023-10-13T11:28:11;13.98;;;5.78;;
45620;SDS011;31345;51.522;10.702;2023-10-13T11:30:51;15.60;;;6.38;;
45620;SDS011;31345;51.522;10.702;2023-10-13T11:33:25;13.70;;;5.95;;
45620;SDS011;31345;51.522;10.702;2023-10-13T11:35:59;13.38;;;6.57;;
45620;SDS011;31345;51.522;10.702;2023-10-13T11:38:34;13.27;;;5.10;;
45620;SDS011;31345;51.522;10.702;2023-10-13T11:41:09;17.73;;;6.47;;
45620;SDS011;31345;51.522;10.702;2023-10-13T11:43:47;13.02;;;6.20;;
45620;SDS011;31345;51.522;10.702;2023-10-13T11:46:54;15.98;;;6.35;;
45620;SDS011;31345;51.522;10.702;2023-10-13T11:49:48;12.65;;;6.63;;
45620;SDS011;31345;51.522;10.702;2023-10-13T11:52:27;13.90;;;6.57;;
45620;SDS011;31345;51.522;10.702;2023-10-13T11:55:01;16.55;;;7.30;;
45620;SDS011;31345;51.522;10.702;2023-10-13T11:57:34;14.10;;;7.10;;
45620;SDS011;31345;51.522;10.702;2023-10-13T12:00:08;15.85;;;6.80;;
45620;SDS011;31345;51.522;10.702;2023-10-13T12:02:57;11.57;;;6.75;;
45620;SDS011;31345;51.522;10.702;2023-10-13T12:05:46;15.70;;;6.65;;
45620;SDS011;31345;51.522;10.702;2023-10-13T12:08:37;13.13;;;6.65;;
45620;SDS011;31345;51.522;10.702;2023-10-13T12:11:20;12.50;;;6.80;;
45620;SDS011;31345;51.522;10.702;2023-10-13T12:14:09;12.45;;;6.88;;
45620;SDS011;31345;51.522;10.702;2023-10-13T12:16:51;14.60;;;6.80;;
45620;SDS011;31345;51.522;10.702;2023-10-13T12:19:24;13.25;;;7.28;;
45620;SDS011;31345;51.522;10.702;2023-10-13T12:21:59;13.48;;;6.70;;
45620;SDS011;31345;51.522;10.702;2023-10-13T12:24:31;13.75;;;6.40;;
45620;SDS011;31345;51.522;10.702;2023-10-13T12:27:08;15.18;;;7.38;;
45620;SDS011;31345;51.522;10.702;2023-10-13T12:29:51;13.68;;;7.07;;
45620;SDS011;31345;51.522;10.702;2023-10-13T12:32:25;15.35;;;7.40;;
45620;SDS011;31345;51.522;10.702;2023-10-13T12:34:57;15.55;;;7.45;;
45620;SDS011;31345;51.522;10.702;2023-10-13T12:37:31;12.60;;;6.85;;
45620;SDS011;31345;51.522;10.702;2023-10-13T12:40:16;13.45;;;6.82;;
45620;SDS011;31345;51.522;10.702;2023-10-13T12:43:07;13.68;;;6.63;;
45620;SDS011;31345;51.522;10.702;2023-10-13T12:45:53;12.20;;;6.72;;
45620;SDS011;31345;51.522;10.702;2023-10-13T12:48:44;11.60;;;6.57;;
45620;SDS011;31345;51.522;10.702;2023-10-13T12:51:35;10.98;;;6.82;;
45620;SDS011;31345;51.522;10.702;2023-10-13T12:54:21;12.10;;;6.80;;
45620;SDS011;31345;51.522;10.702;2023-10-13T12:56:58;13.38;;;6.97;;
45620;SDS011;31345;51.522;10.702;2023-10-13T12:59:31;12.80;;;6.68;;
45620;SDS011;31345;51.522;10.702;2023-10-13T13:02:03;9.90;;;6.18;;
45620;SDS011;31345;51.522;10.702;2023-10-13T13:04:39;15.48;;;6.88;;
45620;SDS011;31345;51.522;10.702;2023-10-13T13:07:15;11.63;;;5.63;;
45620;SDS011;31345;51.522;10.702;2023-10-13T13:09:47;13.20;;;6.47;;
45620;SDS011;31345;51.522;10.702;2023-10-13T13:12:21;13.35;;;6.68;;
45620;SDS011;31345;51.522;10.702;2023-10-13T13:14:55;13.88;;;6.32;;
45620;SDS011;31345;51.522;10.702;2023-10-13T13:17:28;16.42;;;6.00;;
45620;SDS011;31345;51.522;10.702;2023-10-13T13:20:02;10.77;;;5.78;;
45620;SDS011;31345;51.522;10.702;2023-10-13T13:22:42;14.85;;;6.25;;
45620;SDS011;31345;51.522;10.702;2023-10-13T13:25:15;13.00;;;6.70;;
45620;SDS011;31345;51.522;10.702;2023-10-13T13:27:49;13.85;;;6.60;;
45620;SDS011;31345;51.522;10.702;2023-10-13T13:30:23;13.82;;;6.60;;
45620;SDS011;31345;51.522;10.702;2023-10-13T13:33:04;13.25;;;5.40;;
45620;SDS011;31345;51.522;10.702;2023-10-13T13:35:43;13.20;;;6.15;;
45620;SDS011;31345;51.522;10.702;2023-10-13T13:38:15;10.82;;;6.10;;
45620;SDS011;31345;51.522;10.702;2023-10-13T13:40:53;13.68;;;5.80;;
45620;SDS011;31345;51.522;10.702;2023-10-13T13:43:26;9.63;;;5.80;;
45620;SDS011;31345;51.522;10.702;2023-10-13T13:46:08;12.40;;;7.10;;
45620;SDS011;31345;51.522;10.702;2023-10-13T13:48:36;16.50;;;7.13;;
45620;SDS011;31345;51.522;10.702;2023-10-13T13:51:12;9.38;;;6.15;;
45620;SDS011;31345;51.522;10.702;2023-10-13T13:53:46;14.35;;;6.63;;
45620;SDS011;31345;51.522;10.702;2023-10-13T13:56:22;13.60;;;6.25;;
45620;SDS011;31345;51.522;10.702;2023-10-13T13:58:53;14.07;;;5.95;;
45620;SDS011;31345;51.522;10.702;2023-10-13T14:01:22;14.00;;;6.22;;
45620;SDS011;31345;51.522;10.702;2023-10-13T14:03:56;16.45;;;6.53;;
45620;SDS011;31345;51.522;10.702;2023-10-13T14:06:30;14.35;;;6.43;;
45620;SDS011;31345;51.522;10.702;2023-10-13T14:09:03;12.88;;;6.25;;
45620;SDS011;31345;51.522;10.702;2023-10-13T14:11:45;15.07;;;6.30;;
45620;SDS011;31345;51.522;10.702;2023-10-13T14:14:30;12.95;;;6.57;;
45620;SDS011;31345;51.522;10.702;2023-10-13T14:17:04;10.32;;;5.50;;
45620;SDS011;31345;51.522;10.702;2023-10-13T14:19:39;11.30;;;5.93;;
45620;SDS011;31345;51.522;10.702;2023-10-13T14:22:11;14.23;;;6.60;;
45620;SDS011;31345;51.522;10.702;2023-10-13T14:24:44;13.82;;;6.90;;
45620;SDS011;31345;51.522;10.702;2023-10-13T14:27:18;13.32;;;6.30;;
45620;SDS011;31345;51.522;10.702;2023-10-13T14:29:48;10.68;;;6.32;;
45620;SDS011;31345;51.522;10.702;2023-10-13T14:32:26;13.68;;;6.75;;
45620;SDS011;31345;51.522;10.702;2023-10-13T14:34:59;11.68;;;6.07;;
45620;SDS011;31345;51.522;10.702;2023-10-13T14:37:43;13.43;;;6.40;;
45620;SDS011;31345;51.522;10.702;2023-10-13T14:40:16;15.15;;;6.60;;
45620;SDS011;31345;51.522;10.702;2023-10-13T14:42:47;14.25;;;6.32;;
45620;SDS011;31345;51.522;10.702;2023-10-13T14:45:20;15.38;;;6.97;;
45620;SDS011;31345;51.522;10.702;2023-10-13T14:47:53;11.93;;;6.28;;
45620;SDS011;31345;51.522;10.702;2023-10-13T14:50:25;12.50;;;6.95;;
45620;SDS011;31345;51.522;10.702;2023-10-13T14:53:00;12.75;;;6.07;;
45620;SDS011;31345;51.522;10.702;2023-10-13T14:55:33;15.18;;;6.57;;
45620;SDS011;31345;51.522;10.702;2023-10-13T14:58:10;15.73;;;6.57;;
45620;SDS011;31345;51.522;10.702;2023-10-13T15:00:47;16.65;;;6.93;;
45620;SDS011;31345;51.522;10.702;2023-10-13T15:03:14;10.77;;;6.32;;
45620;SDS011;31345;51.522;10.702;2023-10-13T15:05:44;13.73;;;6.10;;
45620;SDS011;31345;51.522;10.702;2023-10-13T15:08:18;13.82;;;6.43;;
45620;SDS011;31345;51.522;10.702;2023-10-13T15:10:51;12.00;;;6.40;;
45620;SDS011;31345;51.522;10.702;2023-10-13T15:13:18;20.25;;;6.80;;
45620;SDS011;31345;51.522;10.702;2023-10-13T15:15:52;13.80;;;6.32;;
45620;SDS011;31345;51.522;10.702;2023-10-13T15:18:19;14.25;;;6.47;;
45620;SDS011;31345;51.522;10.702;2023-10-13T15:20:54;15.35;;;7.03;;
45620;SDS011;31345;51.522;10.702;2023-10-13T15:23:28;16.65;;;6.57;;
45620;SDS011;31345;51.522;10.702;2023-10-13T15:26:03;13.65;;;7.07;;
45620;SDS011;31345;51.522;10.702;2023-10-13T15:28:40;13.02;;;6.40;;
45620;SDS011;31345;51.522;10.702;2023-10-13T15:31:19;13.98;;;6.70;;
45620;SDS011;31345;51.522;10.702;2023-10-13T15:33:52;11.02;;;6.35;;
45620;SDS011;31345;51.522;10.702;2023-10-13T15:36:27;10.82;;;6.63;;